Time;durP1;ratioP1;P1;durP2;ratioP2;P2;SDS_P1;SDS_P2;PMS_P1;PMS_P2;Temp;Humidity;BMP_temperature;BMP_pressure;BME280_temperature;BME280_humidity;BME280_pressure;Samples;Min_cycle;Max_cycle;Signal;HPM_P1;HPM_P2
2023/09/30 00:02:19;;;;;;;14.18;3.42;;;14.30;99.90;;;;;;4898235;29;20180;-95
2023/09/30 00:04:45;;;;;;;8.48;3.10;;;14.30;99.90;;;;;;4898379;29;20192;-93
2023/09/30 00:07:10;;;;;;;7.72;2.92;;;14.30;99.90;;;;;;4898822;29;20200;-95
2023/09/30 00:09:37;;;;;;;11.00;3.28;;;14.20;99.90;;;;;;4897960;29;20527;-94
2023/09/30 00:12:03;;;;;;;8.70;3.20;;;14.20;99.90;;;;;;4898265;29;20272;-94
2023/09/30 00:14:39;;;;;;;11.65;3.50;;;14.20;99.90;;;;;;4898108;29;20270;-95
2023/09/30 00:17:05;;;;;;;13.18;3.33;;;14.10;99.90;;;;;;4898328;29;20179;-94
2023/09/30 00:19:33;;;;;;;12.10;3.35;;;14.20;99.90;;;;;;4898508;29;20187;-93
2023/09/30 00:24:34;;;;;;;10.32;3.67;;;14.10;99.90;;;;;;5041729;23;20247;-96
2023/09/30 00:27:00;;;;;;;12.57;3.08;;;14.10;99.90;;;;;;4884186;29;20196;-91
2023/09/30 00:29:26;;;;;;;11.02;3.63;;;14.10;99.90;;;;;;4882579;29;20188;-96
2023/09/30 00:31:52;;;;;;;11.85;3.60;;;14.10;99.90;;;;;;4882735;29;20180;-94
2023/09/30 00:34:38;;;;;;;12.82;3.50;;;14.00;99.90;;;;;;4882660;29;20232;-96
2023/09/30 00:37:03;;;;;;;11.55;3.50;;;14.00;99.90;;;;;;4882804;29;20251;-96
2023/09/30 00:39:30;;;;;;;15.45;3.97;;;14.00;99.90;;;;;;4882465;29;20203;-92
2023/09/30 00:41:59;;;;;;;10.80;3.22;;;14.00;99.90;;;;;;4882450;29;20210;-94
2023/09/30 00:44:33;;;;;;;11.32;3.45;;;13.90;99.90;;;;;;4883548;29;20176;-96
2023/09/30 00:47:00;;;;;;;13.13;3.72;;;14.00;99.90;;;;;;4883455;29;20607;-94
2023/09/30 00:49:27;;;;;;;12.10;3.63;;;13.90;99.90;;;;;;4883537;29;20274;-96
2023/09/30 00:51:54;;;;;;;12.82;4.05;;;13.90;99.90;;;;;;4883579;29;20314;-95
2023/09/30 00:54:21;;;;;;;13.77;3.42;;;13.80;99.90;;;;;;4882118;29;20204;-95
2023/09/30 00:56:50;;;;;;;15.98;3.47;;;13.80;99.90;;;;;;4882270;29;20173;-93
2023/09/30 00:59:16;;;;;;;10.77;3.40;;;13.80;99.90;;;;;;4884498;29;20225;-96
2023/09/30 01:01:43;;;;;;;10.38;3.47;;;13.80;99.90;;;;;;4882131;29;20180;-94
2023/09/30 01:04:13;;;;;;;10.00;3.30;;;13.80;99.90;;;;;;4881879;29;20685;-94
2023/09/30 01:06:39;;;;;;;12.18;3.78;;;13.80;99.90;;;;;;4883730;29;20745;-96
2023/09/30 01:09:05;;;;;;;10.98;3.35;;;13.70;99.90;;;;;;4881763;29;20211;-96
2023/09/30 01:11:31;;;;;;;13.32;3.65;;;13.80;99.90;;;;;;4883073;29;20262;-87
2023/09/30 01:13:57;;;;;;;10.45;3.25;;;13.70;99.90;;;;;;4882024;29;20270;-84
2023/09/30 01:16:23;;;;;;;13.38;3.85;;;13.70;99.90;;;;;;4881904;29;20184;-95
2023/09/30 01:18:49;;;;;;;9.55;3.03;;;13.60;99.90;;;;;;4882417;29;20195;-96
2023/09/30 01:21:15;;;;;;;13.77;3.63;;;13.60;99.90;;;;;;4881847;29;20184;-94
2023/09/30 01:23:41;;;;;;;9.38;3.13;;;13.60;99.90;;;;;;4880486;29;20303;-96
2023/09/30 01:26:12;;;;;;;13.60;3.58;;;13.60;99.90;;;;;;4881505;29;20195;-95
2023/09/30 01:28:39;;;;;;;9.80;3.45;;;13.60;99.90;;;;;;4882466;29;20200;-93
2023/09/30 01:31:05;;;;;;;15.68;3.70;;;13.60;99.90;;;;;;4881622;29;20184;-96
2023/09/30 01:33:32;;;;;;;12.25;3.65;;;13.60;99.90;;;;;;4881447;29;20612;-86
2023/09/30 01:35:59;;;;;;;13.18;4.50;;;13.60;99.90;;;;;;4880404;29;20532;-92
2023/09/30 01:38:26;;;;;;;14.68;3.85;;;13.60;99.90;;;;;;4880939;29;20184;-96
2023/09/30 01:40:54;;;;;;;16.95;4.63;;;13.50;99.90;;;;;;4881260;29;20184;-96
2023/09/30 01:43:19;;;;;;;11.48;3.80;;;13.50;99.90;;;;;;4880901;29;20194;-94
2023/09/30 01:45:45;;;;;;;14.57;3.97;;;13.50;99.90;;;;;;4880998;29;20184;-96
2023/09/30 01:48:11;;;;;;;8.82;3.10;;;13.40;99.90;;;;;;4880998;29;20310;-95
2023/09/30 01:50:40;;;;;;;12.38;3.53;;;13.40;99.90;;;;;;4881323;29;20188;-89
2023/09/30 01:53:07;;;;;;;13.93;3.83;;;13.40;99.90;;;;;;4881345;29;20191;-91
2023/09/30 01:55:33;;;;;;;13.27;3.92;;;13.40;99.90;;;;;;4882119;29;20198;-90
2023/09/30 01:58:00;;;;;;;11.80;4.35;;;13.30;99.90;;;;;;4881940;29;20184;-86
2023/09/30 02:00:27;;;;;;;14.77;4.43;;;13.30;99.90;;;;;;4880356;29;20184;-90
2023/09/30 02:02:55;;;;;;;12.70;3.40;;;13.30;99.90;;;;;;4881019;29;20183;-93
2023/09/30 02:05:34;;;;;;;12.25;3.42;;;13.30;99.90;;;;;;4880611;29;20278;-95
2023/09/30 02:08:05;;;;;;;12.60;3.60;;;13.30;99.90;;;;;;4880592;29;20250;-91
2023/09/30 02:10:33;;;;;;;13.18;3.85;;;13.30;99.90;;;;;;4880699;29;20203;-92
2023/09/30 02:12:59;;;;;;;14.18;3.85;;;13.30;99.90;;;;;;4880456;29;20278;-91
2023/09/30 02:15:25;;;;;;;11.57;3.70;;;13.20;99.90;;;;;;4881881;29;20176;-89
2023/09/30 02:17:51;;;;;;;10.00;3.42;;;13.20;99.90;;;;;;4880247;29;20183;-86
2023/09/30 02:20:19;;;;;;;12.82;3.65;;;13.20;99.90;;;;;;4880243;29;20530;-88
2023/09/30 02:22:48;;;;;;;13.52;3.60;;;13.20;99.90;;;;;;4879795;29;20184;-88
2023/09/30 02:25:15;;;;;;;14.50;4.13;;;13.20;99.90;;;;;;4880182;29;20196;-85
2023/09/30 02:27:45;;;;;;;14.43;3.67;;;13.20;99.90;;;;;;4880486;29;20317;-93
2023/09/30 02:30:15;;;;;;;14.30;3.83;;;13.20;99.90;;;;;;4880380;29;20187;-92
2023/09/30 02:32:42;;;;;;;8.48;3.25;;;13.20;99.90;;;;;;4880192;29;20176;-92
2023/09/30 02:35:11;;;;;;;16.73;4.68;;;13.20;99.90;;;;;;4880125;29;20188;-95
2023/09/30 02:37:38;;;;;;;13.25;3.40;;;13.10;99.90;;;;;;4881756;29;20253;-90
2023/09/30 02:40:05;;;;;;;14.95;3.95;;;13.10;99.90;;;;;;4879942;29;20183;-93
2023/09/30 02:42:31;;;;;;;14.13;3.72;;;13.10;99.90;;;;;;4880408;29;20217;-95
2023/09/30 02:45:01;;;;;;;12.80;4.05;;;13.10;99.90;;;;;;4880136;29;20184;-96
2023/09/30 02:47:27;;;;;;;14.02;4.03;;;13.10;99.90;;;;;;4883965;29;20227;-96
2023/09/30 02:49:53;;;;;;;10.48;3.58;;;13.10;99.90;;;;;;4884063;29;20211;-91
2023/09/30 02:52:18;;;;;;;16.50;4.05;;;13.10;99.90;;;;;;4884471;29;20191;-92
2023/09/30 02:54:46;;;;;;;16.38;3.92;;;13.10;99.90;;;;;;4883877;29;20234;-95
2023/09/30 02:57:12;;;;;;;11.13;3.63;;;13.10;99.90;;;;;;4884032;29;20214;-91
2023/09/30 02:59:37;;;;;;;15.27;4.20;;;13.00;99.90;;;;;;4884136;29;20623;-95
2023/09/30 03:02:03;;;;;;;12.23;3.58;;;13.10;99.90;;;;;;4883686;29;20184;-96
2023/09/30 03:04:30;;;;;;;13.45;3.97;;;13.00;99.90;;;;;;4883726;29;20180;-94
2023/09/30 03:07:05;;;;;;;14.90;3.83;;;13.00;99.90;;;;;;4884564;29;20188;-93
2023/09/30 03:09:31;;;;;;;13.73;3.58;;;13.00;99.90;;;;;;4883689;29;20194;-94
2023/09/30 03:11:59;;;;;;;12.27;3.60;;;13.00;99.90;;;;;;4883659;29;20192;-96
2023/09/30 03:14:25;;;;;;;11.13;3.63;;;12.90;99.90;;;;;;4883458;29;20310;-90
2023/09/30 03:16:51;;;;;;;14.98;3.67;;;12.90;99.90;;;;;;4882989;29;20207;-92
2023/09/30 03:19:17;;;;;;;13.85;3.95;;;12.90;99.90;;;;;;4884134;29;20184;-90
2023/09/30 03:21:43;;;;;;;10.73;3.70;;;12.90;99.90;;;;;;4883640;29;20184;-95
2023/09/30 03:24:09;;;;;;;17.80;4.68;;;12.90;99.90;;;;;;4882922;29;20236;-94
2023/09/30 03:26:41;;;;;;;14.30;4.45;;;12.80;99.90;;;;;;4883087;29;20271;-93
2023/09/30 03:29:08;;;;;;;18.88;4.47;;;12.90;99.90;;;;;;4883334;29;20220;-94
2023/09/30 03:31:36;;;;;;;12.82;4.15;;;12.90;99.90;;;;;;4883244;29;20214;-95
2023/09/30 03:34:03;;;;;;;12.77;3.90;;;12.90;99.90;;;;;;4883096;29;20247;-94
2023/09/30 03:36:35;;;;;;;12.95;4.00;;;12.80;99.90;;;;;;4883056;29;20191;-93
2023/09/30 03:39:06;;;;;;;15.27;4.13;;;12.80;99.90;;;;;;4882498;29;20180;-94
2023/09/30 03:41:35;;;;;;;10.70;3.95;;;12.80;99.90;;;;;;4883043;29;20187;-93
2023/09/30 03:44:01;;;;;;;11.27;3.00;;;12.80;99.90;;;;;;4884138;29;20191;-95
2023/09/30 03:46:27;;;;;;;11.25;3.42;;;12.80;99.90;;;;;;4882819;29;20227;-91
2023/09/30 03:48:53;;;;;;;11.88;3.75;;;12.80;99.90;;;;;;4884144;29;20558;-94
2023/09/30 03:51:19;;;;;;;12.07;3.50;;;12.80;99.90;;;;;;4884096;29;20191;-96
2023/09/30 03:53:45;;;;;;;12.23;3.72;;;12.80;99.90;;;;;;4883039;29;20184;-95
2023/09/30 03:56:13;;;;;;;16.13;3.80;;;12.80;99.90;;;;;;4882878;29;20195;-91
2023/09/30 03:58:43;;;;;;;17.08;4.18;;;12.70;99.90;;;;;;4882181;29;20176;-95
2023/09/30 04:01:16;;;;;;;13.95;3.60;;;12.70;99.90;;;;;;4883214;29;20180;-96
2023/09/30 04:03:43;;;;;;;16.75;4.22;;;12.60;99.90;;;;;;4882791;29;20179;-96
2023/09/30 04:06:09;;;;;;;14.80;3.80;;;12.70;99.90;;;;;;4882843;29;20180;-93
2023/09/30 04:08:36;;;;;;;18.83;4.25;;;12.60;99.90;;;;;;4883201;29;20223;-89
2023/09/30 04:11:04;;;;;;;14.75;4.07;;;12.70;99.90;;;;;;4882410;29;20179;-93
2023/09/30 04:13:30;;;;;;;16.58;4.00;;;12.70;99.90;;;;;;4882639;29;20192;-92
2023/09/30 04:15:58;;;;;;;12.48;3.80;;;12.70;99.90;;;;;;4882945;29;20508;-89
2023/09/30 04:18:27;;;;;;;13.05;3.67;;;12.70;99.90;;;;;;4883437;29;20168;-96
2023/09/30 04:20:53;;;;;;;15.45;3.88;;;12.70;99.90;;;;;;4883534;29;20623;-91
2023/09/30 04:23:22;;;;;;;16.45;3.60;;;12.80;99.90;;;;;;4882226;29;20232;-95
2023/09/30 04:25:54;;;;;;;12.68;3.65;;;12.80;99.90;;;;;;4882351;29;20179;-88
2023/09/30 04:28:20;;;;;;;15.18;4.18;;;12.80;99.90;;;;;;4882286;29;20223;-93
2023/09/30 04:30:50;;;;;;;16.08;4.03;;;12.70;99.90;;;;;;4882460;29;20187;-92
2023/09/30 04:33:19;;;;;;;9.48;3.50;;;12.60;99.90;;;;;;4882523;29;20188;-93
2023/09/30 04:35:48;;;;;;;14.52;3.38;;;12.60;99.90;;;;;;4882474;29;20180;-96
2023/09/30 04:38:14;;;;;;;13.65;3.47;;;12.60;99.90;;;;;;4882134;29;20271;-96
2023/09/30 04:40:40;;;;;;;18.98;4.68;;;12.60;99.90;;;;;;4882123;29;20340;-94
2023/09/30 04:43:05;;;;;;;16.02;3.45;;;12.60;99.90;;;;;;4882326;29;20180;-91
2023/09/30 04:45:49;;;;;;;16.92;3.58;;;12.50;99.90;;;;;;4882695;29;20271;-95
2023/09/30 04:48:15;;;;;;;14.32;3.83;;;12.60;99.90;;;;;;4881731;29;20318;-90
2023/09/30 04:50:41;;;;;;;14.65;4.07;;;12.50;99.90;;;;;;4881970;29;20629;-90
2023/09/30 04:53:08;;;;;;;16.23;4.03;;;12.60;99.90;;;;;;4883434;29;20187;-91
2023/09/30 04:55:37;;;;;;;13.40;4.22;;;12.60;99.90;;;;;;4880851;29;20180;-92
2023/09/30 04:58:05;;;;;;;20.58;4.18;;;12.60;99.90;;;;;;4881361;29;20560;-87
2023/09/30 05:00:31;;;;;;;12.82;3.97;;;12.60;99.90;;;;;;4882630;29;20176;-89
2023/09/30 05:02:58;;;;;;;17.73;4.10;;;12.60;99.90;;;;;;4881214;29;20619;-85
2023/09/30 05:05:24;;;;;;;15.02;4.30;;;12.60;99.90;;;;;;4880977;29;20275;-85
2023/09/30 05:07:53;;;;;;;19.95;4.32;;;12.60;99.90;;;;;;4881937;29;20294;-86
2023/09/30 05:10:19;;;;;;;18.42;4.40;;;12.60;99.90;;;;;;4879697;29;20177;-85
2023/09/30 05:12:45;;;;;;;18.92;3.78;;;12.60;99.90;;;;;;4881210;29;20248;-85
2023/09/30 05:15:15;;;;;;;18.92;4.13;;;12.60;99.90;;;;;;4882135;29;20172;-84
2023/09/30 05:17:45;;;;;;;16.83;4.75;;;12.60;99.90;;;;;;4881101;29;20191;-87
2023/09/30 05:20:12;;;;;;;15.18;3.88;;;12.60;99.90;;;;;;4880739;29;20192;-87
2023/09/30 05:22:40;;;;;;;18.17;4.70;;;12.60;99.90;;;;;;4880492;29;20239;-85
2023/09/30 05:25:07;;;;;;;15.48;4.45;;;12.60;99.90;;;;;;4881022;29;20573;-86
2023/09/30 05:27:34;;;;;;;13.95;3.95;;;12.60;99.90;;;;;;4880651;29;20726;-84
2023/09/30 05:30:00;;;;;;;16.83;3.95;;;12.60;99.90;;;;;;4880549;29;20227;-86
2023/09/30 05:32:26;;;;;;;11.43;3.75;;;12.60;99.90;;;;;;4880570;29;20203;-86
2023/09/30 05:34:53;;;;;;;11.13;3.53;;;12.60;99.90;;;;;;4880447;29;20196;-85
2023/09/30 05:37:21;;;;;;;18.85;4.38;;;12.70;99.90;;;;;;4880307;29;20184;-87
2023/09/30 05:39:48;;;;;;;13.63;3.78;;;12.60;99.90;;;;;;4880281;29;20196;-91
2023/09/30 05:42:16;;;;;;;14.10;4.10;;;12.60;99.90;;;;;;4880110;29;20188;-86
2023/09/30 05:44:42;;;;;;;15.23;3.88;;;12.60;99.90;;;;;;4880161;29;20180;-92
2023/09/30 05:47:10;;;;;;;15.38;4.15;;;12.70;99.90;;;;;;4880133;29;20520;-87
2023/09/30 05:49:36;;;;;;;19.33;4.22;;;12.70;99.90;;;;;;4881953;29;20172;-86
2023/09/30 05:52:02;;;;;;;18.70;4.20;;;12.70;99.90;;;;;;4880369;29;20195;-93
2023/09/30 05:54:28;;;;;;;15.55;4.22;;;12.70;99.90;;;;;;4881122;29;20563;-84
2023/09/30 05:56:57;;;;;;;12.75;4.22;;;12.80;99.90;;;;;;4881398;29;20250;-85
2023/09/30 05:59:24;;;;;;;11.20;3.88;;;12.70;99.90;;;;;;4881232;29;20176;-86
2023/09/30 06:01:50;;;;;;;13.00;3.70;;;12.70;99.90;;;;;;4879843;29;20187;-85
2023/09/30 06:04:16;;;;;;;19.65;4.20;;;12.80;99.90;;;;;;4880130;29;20275;-84
2023/09/30 06:06:49;;;;;;;15.85;4.28;;;12.80;99.90;;;;;;4879766;29;20990;-90
2023/09/30 06:09:15;;;;;;;16.38;4.28;;;12.80;99.90;;;;;;4879632;29;20219;-85
2023/09/30 06:11:41;;;;;;;18.92;5.20;;;12.80;99.90;;;;;;4881692;29;20183;-95
2023/09/30 06:14:07;;;;;;;16.30;4.60;;;12.70;99.90;;;;;;4884549;29;20203;-93
2023/09/30 06:16:34;;;;;;;16.15;4.00;;;12.70;99.90;;;;;;4880999;29;20611;-96
2023/09/30 06:19:00;;;;;;;15.82;4.45;;;12.80;99.90;;;;;;4883646;29;20191;-96
2023/09/30 06:21:29;;;;;;;14.55;4.50;;;12.80;99.90;;;;;;4882188;29;20176;-93
2023/09/30 06:23:55;;;;;;;16.80;4.85;;;12.80;99.90;;;;;;4884371;29;20314;-96
2023/09/30 06:26:21;;;;;;;19.30;4.95;;;12.80;99.90;;;;;;4882817;29;20223;-96
2023/09/30 06:28:47;;;;;;;13.27;4.22;;;12.90;99.90;;;;;;4882846;29;20207;-96
2023/09/30 06:31:15;;;;;;;16.33;4.38;;;12.90;99.90;;;;;;4884279;29;20183;-91
2023/09/30 06:33:41;;;;;;;14.95;4.95;;;12.90;99.90;;;;;;4883008;29;20216;-89
2023/09/30 06:36:16;;;;;;;15.52;4.82;;;12.90;99.90;;;;;;4884867;29;20631;-96
2023/09/30 06:38:43;;;;;;;16.75;4.60;;;13.00;99.90;;;;;;4881604;29;20282;-95
2023/09/30 06:41:09;;;;;;;15.25;4.82;;;13.00;99.90;;;;;;4881731;29;20187;-94
2023/09/30 06:43:35;;;;;;;21.10;4.50;;;13.10;99.90;;;;;;4883373;29;20236;-92
2023/09/30 06:46:11;;;;;;;16.67;4.80;;;13.10;99.90;;;;;;4889320;29;20184;-95
2023/09/30 06:48:41;;;;;;;17.10;4.60;;;13.10;99.90;;;;;;4882739;29;20278;-95
2023/09/30 06:51:06;;;;;;;14.38;4.82;;;13.10;99.90;;;;;;4883759;29;20168;-96
2023/09/30 06:53:33;;;;;;;14.85;4.28;;;13.20;99.90;;;;;;4882918;29;20201;-96
2023/09/30 06:55:59;;;;;;;16.55;5.03;;;13.20;99.90;;;;;;4887919;29;20187;-96
2023/09/30 06:58:25;;;;;;;18.52;4.57;;;13.30;99.90;;;;;;4886958;29;20218;-96
2023/09/30 07:00:53;;;;;;;18.75;4.50;;;13.30;99.90;;;;;;4883482;29;20231;-95
2023/09/30 07:03:19;;;;;;;14.32;4.20;;;13.40;99.90;;;;;;4884520;29;20636;-96
2023/09/30 07:05:45;;;;;;;21.88;4.60;;;13.40;99.90;;;;;;4883886;29;20208;-96
2023/09/30 07:08:11;;;;;;;14.55;4.38;;;13.40;99.90;;;;;;4882641;29;20212;-92
2023/09/30 07:10:37;;;;;;;14.95;5.03;;;13.50;99.90;;;;;;4868751;29;20229;-96
2023/09/30 07:13:03;;;;;;;15.50;4.32;;;13.50;99.90;;;;;;4865733;29;20181;-95
2023/09/30 07:15:29;;;;;;;14.25;4.47;;;13.60;99.90;;;;;;4880288;29;20184;-96
2023/09/30 07:17:56;;;;;;;15.48;4.18;;;13.70;99.90;;;;;;4865332;29;20184;-96
2023/09/30 07:20:22;;;;;;;15.88;4.93;;;13.70;99.90;;;;;;4866568;29;20189;-96
2023/09/30 07:22:48;;;;;;;12.98;4.20;;;13.80;99.90;;;;;;4869692;29;20438;-96
2023/09/30 07:25:16;;;;;;;21.45;5.22;;;13.80;99.90;;;;;;4884494;29;20204;-96
2023/09/30 07:27:46;;;;;;;18.17;4.22;;;13.90;99.90;;;;;;4869040;29;20220;-96
2023/09/30 07:30:14;;;;;;;12.55;4.10;;;13.90;99.90;;;;;;4865530;29;20183;-91
2023/09/30 07:32:44;;;;;;;16.67;4.72;;;14.00;99.90;;;;;;4870099;29;20224;-96
2023/09/30 07:35:11;;;;;;;16.67;4.38;;;14.00;99.90;;;;;;4869294;29;20184;-96
2023/09/30 07:37:45;;;;;;;12.73;3.88;;;14.10;99.90;;;;;;4869924;29;20308;-94
2023/09/30 07:40:11;;;;;;;13.57;4.20;;;14.10;99.90;;;;;;4889572;29;20179;-96
2023/09/30 07:42:38;;;;;;;15.95;3.97;;;14.20;99.90;;;;;;4888691;29;20263;-96
2023/09/30 07:45:04;;;;;;;14.60;4.00;;;14.20;99.90;;;;;;4888560;29;20188;-96
2023/09/30 07:47:33;;;;;;;19.40;4.03;;;14.30;99.90;;;;;;4886545;29;20746;-96
2023/09/30 07:50:02;;;;;;;11.60;3.78;;;14.30;99.90;;;;;;4884992;29;20202;-96
2023/09/30 07:52:28;;;;;;;11.65;4.05;;;14.40;99.90;;;;;;4886550;29;20180;-96
2023/09/30 07:54:54;;;;;;;16.40;3.80;;;14.40;99.90;;;;;;4886824;29;20279;-96
2023/09/30 07:57:25;;;;;;;14.88;4.25;;;14.50;99.90;;;;;;4889581;29;20186;-96
2023/09/30 07:59:51;;;;;;;12.80;3.88;;;14.50;99.90;;;;;;4891439;29;20168;-92
2023/09/30 08:02:17;;;;;;;16.70;3.95;;;14.60;99.90;;;;;;4887280;29;20173;-94
2023/09/30 08:04:47;;;;;;;14.13;3.60;;;14.70;99.90;;;;;;4885427;29;20214;-90
2023/09/30 08:07:14;;;;;;;12.82;4.10;;;14.80;99.90;;;;;;4886120;29;20188;-89
2023/09/30 08:09:40;;;;;;;15.90;3.95;;;14.80;99.90;;;;;;4884293;29;20203;-87
2023/09/30 08:12:06;;;;;;;12.25;4.20;;;14.90;99.90;;;;;;4883690;29;20188;-86
2023/09/30 08:14:32;;;;;;;14.23;4.38;;;14.90;99.90;;;;;;4884694;29;20194;-89
2023/09/30 08:16:58;;;;;;;11.02;3.28;;;15.00;99.90;;;;;;4884200;29;20267;-87
2023/09/30 08:19:24;;;;;;;12.95;3.92;;;15.00;99.90;;;;;;4884371;29;20180;-86
2023/09/30 08:21:50;;;;;;;15.25;4.13;;;15.10;99.90;;;;;;4882916;29;20376;-87
2023/09/30 08:24:16;;;;;;;15.10;3.92;;;15.10;99.90;;;;;;4882851;29;20246;-86
2023/09/30 08:26:41;;;;;;;17.52;3.50;;;15.10;99.90;;;;;;4882621;29;20180;-91
2023/09/30 08:29:21;;;;;;;13.48;3.65;;;15.20;99.90;;;;;;4883471;29;20228;-95
2023/09/30 08:31:46;;;;;;;17.80;3.95;;;15.30;99.90;;;;;;4882467;29;20172;-92
2023/09/30 08:34:14;;;;;;;12.48;3.47;;;15.30;99.90;;;;;;4883014;29;20220;-94
2023/09/30 08:36:41;;;;;;;10.32;3.40;;;15.40;99.90;;;;;;4882693;29;20244;-86
2023/09/30 08:39:07;;;;;;;9.85;3.03;;;15.50;99.90;;;;;;4883270;29;20251;-91
2023/09/30 08:41:34;;;;;;;8.85;3.13;;;15.50;99.90;;;;;;4882979;29;20184;-89
2023/09/30 08:44:02;;;;;;;12.52;3.63;;;15.60;99.90;;;;;;4883820;29;20635;-88
2023/09/30 08:46:34;;;;;;;11.82;3.55;;;15.70;99.90;;;;;;4883597;29;20180;-86
2023/09/30 08:49:05;;;;;;;12.68;4.15;;;15.70;99.90;;;;;;4883492;29;20298;-88
2023/09/30 08:51:32;;;;;;;14.05;3.80;;;15.90;99.90;;;;;;4883850;29;20176;-87
2023/09/30 08:53:59;;;;;;;13.75;2.80;;;15.90;99.90;;;;;;4884151;29;20199;-86
2023/09/30 08:56:28;;;;;;;12.93;3.65;;;16.00;99.90;;;;;;4883796;29;20184;-87
2023/09/30 08:59:01;;;;;;;11.07;2.78;;;16.00;99.90;;;;;;4883886;29;20262;-85
2023/09/30 09:01:28;;;;;;;18.05;3.80;;;16.20;99.90;;;;;;4883717;29;20175;-87
2023/09/30 09:03:54;;;;;;;11.23;3.13;;;16.20;99.90;;;;;;4883019;29;20271;-86
2023/09/30 09:06:24;;;;;;;10.25;3.40;;;16.40;99.90;;;;;;4882513;29;20180;-86
2023/09/30 09:08:52;;;;;;;9.43;2.72;;;16.40;99.90;;;;;;4882690;29;20678;-87
2023/09/30 09:11:18;;;;;;;10.93;2.60;;;16.40;99.90;;;;;;4883488;29;20581;-87
2023/09/30 09:13:49;;;;;;;13.50;2.97;;;16.50;99.90;;;;;;4882032;29;20217;-86
2023/09/30 09:16:18;;;;;;;15.68;3.08;;;16.50;99.90;;;;;;4882847;29;20564;-86
2023/09/30 09:18:44;;;;;;;11.65;3.03;;;16.50;99.90;;;;;;4882258;29;20572;-86
2023/09/30 09:21:28;;;;;;;15.05;3.13;;;16.60;99.90;;;;;;4883715;29;20640;-85
2023/09/30 09:23:54;;;;;;;10.55;2.80;;;16.60;99.90;;;;;;4881960;29;20334;-91
2023/09/30 09:26:29;;;;;;;13.77;3.10;;;16.70;99.90;;;;;;4881442;29;20393;-88
2023/09/30 09:28:58;;;;;;;10.18;3.15;;;16.80;99.90;;;;;;4881740;29;20207;-87
2023/09/30 09:31:29;;;;;;;9.00;2.90;;;16.90;99.90;;;;;;4883623;29;20557;-86
2023/09/30 09:33:55;;;;;;;12.20;3.47;;;17.00;99.90;;;;;;4881668;29;20235;-87
2023/09/30 09:36:21;;;;;;;10.30;2.80;;;17.00;99.90;;;;;;4881475;29;20187;-87
2023/09/30 09:38:54;;;;;;;12.38;3.00;;;17.10;99.90;;;;;;4881593;29;20187;-92
2023/09/30 09:41:20;;;;;;;9.77;2.85;;;17.20;99.90;;;;;;4881604;29;20180;-86
2023/09/30 09:43:50;;;;;;;11.25;2.50;;;17.20;99.90;;;;;;4881816;29;20184;-86
2023/09/30 09:46:17;;;;;;;13.07;3.30;;;17.20;99.90;;;;;;4881268;29;20736;-86
2023/09/30 09:48:49;;;;;;;11.07;2.85;;;17.30;99.90;;;;;;4881329;29;20243;-90
2023/09/30 09:51:16;;;;;;;12.73;2.97;;;17.30;99.90;;;;;;4880910;29;20183;-86
2023/09/30 09:53:43;;;;;;;12.05;2.88;;;17.40;99.90;;;;;;4880727;29;20188;-88
2023/09/30 09:56:10;;;;;;;8.32;2.50;;;17.50;99.90;;;;;;4880190;29;20184;-87
2023/09/30 09:58:41;;;;;;;9.40;2.33;;;17.40;99.90;;;;;;4880983;29;20663;-87
2023/09/30 10:01:06;;;;;;;9.10;2.60;;;17.40;99.90;;;;;;4880662;29;20271;-87
2023/09/30 10:03:33;;;;;;;8.90;2.40;;;17.40;99.90;;;;;;4880543;29;20755;-91
2023/09/30 10:06:00;;;;;;;14.18;2.78;;;17.40;99.90;;;;;;4880323;29;20180;-86
2023/09/30 10:08:47;;;;;;;10.40;2.90;;;17.50;99.90;;;;;;4880404;29;20310;-87
2023/09/30 10:11:20;;;;;;;15.00;3.22;;;17.70;99.90;;;;;;4880169;29;20196;-87
2023/09/30 10:13:57;;;;;;;10.10;2.25;;;17.80;99.90;;;;;;4880417;29;20544;-87
2023/09/30 10:16:35;;;;;;;9.35;2.60;;;17.80;99.90;;;;;;4881672;29;20171;-89
2023/09/30 10:19:19;;;;;;;9.43;2.65;;;17.60;99.90;;;;;;4881926;29;20191;-95
2023/09/30 10:22:19;;;;;;;7.95;2.30;;;17.60;99.90;;;;;;4883715;29;20176;-95
2023/09/30 10:24:47;;;;;;;10.70;2.40;;;17.70;99.90;;;;;;4881341;29;20254;-95
2023/09/30 10:27:21;;;;;;;8.00;2.28;;;17.80;99.90;;;;;;4882638;29;20180;-96
2023/09/30 10:30:15;;;;;;;12.65;2.78;;;18.00;99.90;;;;;;4881469;29;20192;-93
2023/09/30 10:32:53;;;;;;;10.43;2.78;;;18.10;99.90;;;;;;4881273;29;20611;-95
2023/09/30 10:35:43;;;;;;;11.77;3.05;;;18.20;99.90;;;;;;4880467;29;20194;-96
2023/09/30 10:38:34;;;;;;;9.60;2.28;;;18.30;99.90;;;;;;4880389;29;20208;-94
2023/09/30 10:41:02;;;;;;;9.13;2.70;;;18.50;99.90;;;;;;4880998;29;20180;-95
2023/09/30 10:43:39;;;;;;;8.57;2.50;;;18.30;99.90;;;;;;4880779;29;20959;-94
2023/09/30 10:46:27;;;;;;;12.27;2.40;;;18.30;99.90;;;;;;4880497;29;20214;-93
2023/09/30 10:49:23;;;;;;;10.45;2.17;;;18.50;99.90;;;;;;4880119;29;20216;-95
2023/09/30 10:51:54;;;;;;;7.60;1.90;;;18.50;99.90;;;;;;4872917;29;20187;-87
2023/09/30 10:54:38;;;;;;;8.57;1.98;;;18.50;99.90;;;;;;4879908;29;20180;-88
2023/09/30 10:57:04;;;;;;;8.20;2.65;;;18.60;99.90;;;;;;4879594;29;20175;-90
2023/09/30 10:59:32;;;;;;;8.25;2.38;;;18.60;99.90;;;;;;4880131;29;20239;-94
2023/09/30 11:01:58;;;;;;;7.32;1.70;;;18.70;99.90;;;;;;4880284;29;20188;-95
2023/09/30 11:04:24;;;;;;;9.13;2.10;;;18.70;99.90;;;;;;4880050;29;20180;-93
2023/09/30 11:06:51;;;;;;;9.82;2.40;;;18.70;99.90;;;;;;4880051;29;20566;-94
2023/09/30 11:09:21;;;;;;;9.80;2.45;;;18.70;99.90;;;;;;4882957;29;20211;-93
2023/09/30 11:11:50;;;;;;;7.15;2.08;;;18.70;99.90;;;;;;4883405;29;20180;-95
2023/09/30 11:14:27;;;;;;;8.68;2.30;;;18.80;99.90;;;;;;4884489;29;20525;-91
2023/09/30 11:16:54;;;;;;;7.75;1.90;;;18.80;99.90;;;;;;4883154;29;20184;-96
2023/09/30 11:19:45;;;;;;;6.22;1.75;;;18.80;99.90;;;;;;4883393;29;20189;-91
2023/09/30 11:22:12;;;;;;;7.68;1.90;;;18.90;99.90;;;;;;4883388;29;20190;-87
2023/09/30 11:24:38;;;;;;;4.65;1.92;;;18.90;99.90;;;;;;4883308;29;20663;-87
2023/09/30 11:27:04;;;;;;;6.22;1.63;;;19.00;99.90;;;;;;4883127;29;20187;-87
2023/09/30 11:29:31;;;;;;;7.03;1.95;;;19.10;99.90;;;;;;4883207;29;20276;-87
2023/09/30 11:31:57;;;;;;;8.05;1.98;;;19.30;99.90;;;;;;4883083;29;20271;-89
2023/09/30 11:34:36;;;;;;;8.27;1.80;;;19.30;99.90;;;;;;4883024;29;20218;-92
2023/09/30 11:37:02;;;;;;;5.90;1.85;;;19.30;99.90;;;;;;4883058;29;20262;-86
2023/09/30 11:39:29;;;;;;;6.03;1.85;;;19.30;99.90;;;;;;4882915;29;20195;-91
2023/09/30 11:41:57;;;;;;;8.27;2.08;;;19.40;99.90;;;;;;4882668;29;20190;-86
2023/09/30 11:44:24;;;;;;;8.73;2.00;;;19.50;99.90;;;;;;4883060;29;20187;-91
2023/09/30 11:47:05;;;;;;;10.15;2.28;;;19.60;99.90;;;;;;4883779;29;20211;-88
2023/09/30 11:49:38;;;;;;;6.18;1.85;;;19.60;99.90;;;;;;4883987;29;20208;-92
2023/09/30 11:52:07;;;;;;;6.75;1.80;;;19.80;99.90;;;;;;4882855;29;20177;-96
2023/09/30 11:54:37;;;;;;;8.70;2.03;;;19.80;99.90;;;;;;4883883;29;20220;-91
2023/09/30 11:57:03;;;;;;;6.88;1.70;;;19.80;99.90;;;;;;4882535;29;20180;-92
2023/09/30 11:59:30;;;;;;;5.78;1.90;;;19.80;99.90;;;;;;4882908;29;20180;-89
2023/09/30 12:01:57;;;;;;;5.78;1.80;;;19.80;99.90;;;;;;4882634;29;20187;-90
2023/09/30 12:04:22;;;;;;;5.22;1.58;;;19.80;99.90;;;;;;4882350;29;20180;-93
2023/09/30 12:06:48;;;;;;;7.05;2.00;;;19.80;99.90;;;;;;4882489;29;20191;-92
2023/09/30 12:09:22;;;;;;;10.07;1.95;;;19.90;99.90;;;;;;4870497;29;20299;-90
2023/09/30 12:11:48;;;;;;;4.97;1.48;;;19.90;99.90;;;;;;4863872;29;20181;-94
2023/09/30 12:14:15;;;;;;;8.40;1.90;;;19.80;99.90;;;;;;4864061;29;20189;-89
2023/09/30 12:16:41;;;;;;;7.57;2.08;;;19.70;99.90;;;;;;4863718;29;20195;-93
2023/09/30 12:19:08;;;;;;;7.60;2.05;;;19.60;99.90;;;;;;4863715;29;20920;-94
2023/09/30 12:21:34;;;;;;;7.70;2.00;;;19.60;99.90;;;;;;4879206;29;20605;-90
2023/09/30 12:24:02;;;;;;;4.10;1.90;;;19.70;99.90;;;;;;4863465;29;20252;-93
2023/09/30 12:26:28;;;;;;;5.30;1.77;;;19.70;99.90;;;;;;4863390;29;20181;-90
2023/09/30 12:28:55;;;;;;;4.93;1.73;;;19.60;99.90;;;;;;4863655;29;20656;-88
2023/09/30 12:31:25;;;;;;;5.50;1.50;;;19.60;99.90;;;;;;4879262;29;20193;-90
2023/09/30 12:33:51;;;;;;;6.57;1.92;;;19.60;99.90;;;;;;4879427;29;20188;-95
2023/09/30 12:36:21;;;;;;;5.95;1.80;;;19.60;99.90;;;;;;4863848;29;20184;-90
2023/09/30 12:38:47;;;;;;;4.90;1.40;;;19.50;99.90;;;;;;4873255;29;20192;-88
2023/09/30 12:41:19;;;;;;;5.13;1.70;;;19.50;99.90;;;;;;4882164;29;20190;-93
2023/09/30 12:43:45;;;;;;;5.50;1.63;;;19.50;99.90;;;;;;4882222;29;20179;-91
2023/09/30 12:46:13;;;;;;;5.00;1.55;;;19.50;99.90;;;;;;4881860;29;20187;-93
2023/09/30 12:48:39;;;;;;;9.82;1.65;;;19.40;99.90;;;;;;4881684;29;20608;-89